sensor_id;sensor_type;location;lat;lon;timestamp;temperature;humidity
17597;DHT22;8917;50.942;6.946;2023-09-19T00:02:04;19.10;99.90
17597;DHT22;8917;50.942;6.946;2023-09-19T00:04:35;19.20;99.90
17597;DHT22;8917;50.942;6.946;2023-09-19T00:07:05;19.20;99.90
17597;DHT22;8917;50.942;6.946;2023-09-19T00:09:32;19.20;99.90
17597;DHT22;8917;50.942;6.946;2023-09-19T00:12:03;19.10;99.90
17597;DHT22;8917;50.942;6.946;2023-09-19T00:14:30;19.20;99.90
17597;DHT22;8917;50.942;6.946;2023-09-19T00:17:01;19.10;99.90
17597;DHT22;8917;50.942;6.946;2023-09-19T00:19:31;19.20;99.90
17597;DHT22;8917;50.942;6.946;2023-09-19T00:21:59;19.10;99.90
17597;DHT22;8917;50.942;6.946;2023-09-19T00:24:26;19.20;99.90
17597;DHT22;8917;50.942;6.946;2023-09-19T00:26:54;19.10;99.90
17597;DHT22;8917;50.942;6.946;2023-09-19T00:29:22;19.20;99.90
17597;DHT22;8917;50.942;6.946;2023-09-19T00:31:49;19.40;99.90
17597;DHT22;8917;50.942;6.946;2023-09-19T00:34:16;19.30;99.90
17597;DHT22;8917;50.942;6.946;2023-09-19T00:36:43;19.10;99.90
17597;DHT22;8917;50.942;6.946;2023-09-19T00:39:12;19.20;99.90
17597;DHT22;8917;50.942;6.946;2023-09-19T00:41:39;19.10;99.90
17597;DHT22;8917;50.942;6.946;2023-09-19T00:44:06;19.20;99.90
17597;DHT22;8917;50.942;6.946;2023-09-19T00:46:35;19.10;99.90
17597;DHT22;8917;50.942;6.946;2023-09-19T00:49:02;19.10;99.90
17597;DHT22;8917;50.942;6.946;2023-09-19T00:51:29;19.10;99.90
17597;DHT22;8917;50.942;6.946;2023-09-19T00:53:56;19.10;99.90
17597;DHT22;8917;50.942;6.946;2023-09-19T00:56:26;19.10;99.90
17597;DHT22;8917;50.942;6.946;2023-09-19T00:58:53;19.10;99.90
17597;DHT22;8917;50.942;6.946;2023-09-19T01:01:20;19.10;99.90
17597;DHT22;8917;50.942;6.946;2023-09-19T01:03:47;19.20;99.90
17597;DHT22;8917;50.942;6.946;2023-09-19T01:06:14;19.10;99.90
17597;DHT22;8917;50.942;6.946;2023-09-19T01:08:41;19.20;99.90
17597;DHT22;8917;50.942;6.946;2023-09-19T01:11:12;19.20;99.90
17597;DHT22;8917;50.942;6.946;2023-09-19T01:13:49;19.30;99.90
17597;DHT22;8917;50.942;6.946;2023-09-19T01:16:32;19.20;99.90
17597;DHT22;8917;50.942;6.946;2023-09-19T01:19:26;19.10;99.90
17597;DHT22;8917;50.942;6.946;2023-09-19T01:22:00;19.10;99.90
17597;DHT22;8917;50.942;6.946;2023-09-19T01:25:03;19.20;99.90
17597;DHT22;8917;50.942;6.946;2023-09-19T01:27:53;19.10;99.90
17597;DHT22;8917;50.942;6.946;2023-09-19T01:30:27;19.10;99.90
17597;DHT22;8917;50.942;6.946;2023-09-19T01:32:56;19.10;99.90
17597;DHT22;8917;50.942;6.946;2023-09-19T01:35:25;19.00;99.90
17597;DHT22;8917;50.942;6.946;2023-09-19T01:37:51;19.00;99.90
17597;DHT22;8917;50.942;6.946;2023-09-19T01:40:20;19.00;99.90
17597;DHT22;8917;50.942;6.946;2023-09-19T01:42:53;19.20;99.90
17597;DHT22;8917;50.942;6.946;2023-09-19T01:45:30;19.10;99.90
17597;DHT22;8917;50.942;6.946;2023-09-19T01:48:09;19.10;99.90
17597;DHT22;8917;50.942;6.946;2023-09-19T01:50:43;19.10;99.90
17597;DHT22;8917;50.942;6.946;2023-09-19T01:53:19;19.00;99.90
17597;DHT22;8917;50.942;6.946;2023-09-19T01:55:50;19.10;99.90
17597;DHT22;8917;50.942;6.946;2023-09-19T01:58:21;18.90;99.90
17597;DHT22;8917;50.942;6.946;2023-09-19T02:00:50;18.90;99.90
17597;DHT22;8917;50.942;6.946;2023-09-19T02:03:18;18.80;99.70
17597;DHT22;8917;50.942;6.946;2023-09-19T02:05:49;18.90;99.60
17597;DHT22;8917;50.942;6.946;2023-09-19T02:08:17;18.80;99.50
17597;DHT22;8917;50.942;6.946;2023-09-19T02:10:45;18.80;99.60
17597;DHT22;8917;50.942;6.946;2023-09-19T02:13:15;19.00;99.30
17597;DHT22;8917;50.942;6.946;2023-09-19T02:15:44;19.10;99.20
17597;DHT22;8917;50.942;6.946;2023-09-19T02:18:13;19.10;99.00
17597;DHT22;8917;50.942;6.946;2023-09-19T02:20:40;19.00;99.00
17597;DHT22;8917;50.942;6.946;2023-09-19T02:23:07;19.00;99.10
17597;DHT22;8917;50.942;6.946;2023-09-19T02:25:34;18.80;99.10
17597;DHT22;8917;50.942;6.946;2023-09-19T02:28:04;19.00;99.10
17597;DHT22;8917;50.942;6.946;2023-09-19T02:30:31;18.90;99.00
17597;DHT22;8917;50.942;6.946;2023-09-19T02:32:58;18.80;99.10
17597;DHT22;8917;50.942;6.946;2023-09-19T02:35:28;18.70;99.00
17597;DHT22;8917;50.942;6.946;2023-09-19T02:37:58;18.70;99.00
17597;DHT22;8917;50.942;6.946;2023-09-19T02:40:25;18.70;99.00
17597;DHT22;8917;50.942;6.946;2023-09-19T02:42:54;18.80;99.10
17597;DHT22;8917;50.942;6.946;2023-09-19T02:45:22;18.80;98.90
17597;DHT22;8917;50.942;6.946;2023-09-19T02:47:49;18.80;99.00
17597;DHT22;8917;50.942;6.946;2023-09-19T02:50:16;18.70;99.50
17597;DHT22;8917;50.942;6.946;2023-09-19T02:52:46;18.60;99.70
17597;DHT22;8917;50.942;6.946;2023-09-19T02:55:14;18.60;99.80
17597;DHT22;8917;50.942;6.946;2023-09-19T02:57:46;18.60;99.70
17597;DHT22;8917;50.942;6.946;2023-09-19T03:00:13;18.40;99.90
17597;DHT22;8917;50.942;6.946;2023-09-19T03:02:40;18.50;99.80
17597;DHT22;8917;50.942;6.946;2023-09-19T03:05:08;18.40;99.90
17597;DHT22;8917;50.942;6.946;2023-09-19T03:07:37;18.40;99.90
17597;DHT22;8917;50.942;6.946;2023-09-19T03:10:06;18.30;99.90
17597;DHT22;8917;50.942;6.946;2023-09-19T03:12:34;18.20;99.90
17597;DHT22;8917;50.942;6.946;2023-09-19T03:15:01;18.30;99.90
17597;DHT22;8917;50.942;6.946;2023-09-19T03:17:29;18.20;99.90
17597;DHT22;8917;50.942;6.946;2023-09-19T03:19:58;18.20;99.90
17597;DHT22;8917;50.942;6.946;2023-09-19T03:22:26;18.30;99.90
17597;DHT22;8917;50.942;6.946;2023-09-19T03:24:53;18.40;99.90
17597;DHT22;8917;50.942;6.946;2023-09-19T03:27:21;18.50;99.90
17597;DHT22;8917;50.942;6.946;2023-09-19T03:29:48;18.40;99.90
17597;DHT22;8917;50.942;6.946;2023-09-19T03:32:15;18.20;99.90
17597;DHT22;8917;50.942;6.946;2023-09-19T03:34:42;18.20;99.90
17597;DHT22;8917;50.942;6.946;2023-09-19T03:37:09;18.00;99.90
17597;DHT22;8917;50.942;6.946;2023-09-19T03:39:36;18.00;99.90
17597;DHT22;8917;50.942;6.946;2023-09-19T03:42:04;18.00;99.90
17597;DHT22;8917;50.942;6.946;2023-09-19T03:44:34;18.10;99.90
17597;DHT22;8917;50.942;6.946;2023-09-19T03:47:00;18.10;99.90
17597;DHT22;8917;50.942;6.946;2023-09-19T03:49:30;18.10;99.90
17597;DHT22;8917;50.942;6.946;2023-09-19T03:51:57;18.10;99.90
17597;DHT22;8917;50.942;6.946;2023-09-19T03:54:24;18.20;99.90
17597;DHT22;8917;50.942;6.946;2023-09-19T03:56:51;18.10;99.90
17597;DHT22;8917;50.942;6.946;2023-09-19T03:59:18;18.10;99.90
17597;DHT22;8917;50.942;6.946;2023-09-19T04:01:46;18.10;99.90
17597;DHT22;8917;50.942;6.946;2023-09-19T04:04:14;18.20;99.90
17597;DHT22;8917;50.942;6.946;2023-09-19T04:06:40;18.20;99.90
17597;DHT22;8917;50.942;6.946;2023-09-19T04:09:08;18.20;99.90
17597;DHT22;8917;50.942;6.946;2023-09-19T04:11:34;18.20;99.90
17597;DHT22;8917;50.942;6.946;2023-09-19T04:14:03;18.20;99.90
17597;DHT22;8917;50.942;6.946;2023-09-19T04:16:30;18.10;99.90
17597;DHT22;8917;50.942;6.946;2023-09-19T04:18:58;18.10;99.90
17597;DHT22;8917;50.942;6.946;2023-09-19T04:21:25;17.90;99.90
17597;DHT22;8917;50.942;6.946;2023-09-19T04:23:53;18.00;99.90
17597;DHT22;8917;50.942;6.946;2023-09-19T04:26:20;17.90;99.90
17597;DHT22;8917;50.942;6.946;2023-09-19T04:28:47;18.00;99.90
17597;DHT22;8917;50.942;6.946;2023-09-19T04:31:14;17.90;99.90
17597;DHT22;8917;50.942;6.946;2023-09-19T04:33:42;18.00;99.90
17597;DHT22;8917;50.942;6.946;2023-09-19T04:36:10;18.10;99.90
17597;DHT22;8917;50.942;6.946;2023-09-19T04:38:38;18.10;99.80
17597;DHT22;8917;50.942;6.946;2023-09-19T04:41:05;18.10;99.60
17597;DHT22;8917;50.942;6.946;2023-09-19T04:43:32;18.00;99.40
17597;DHT22;8917;50.942;6.946;2023-09-19T04:45:59;18.00;99.70
17597;DHT22;8917;50.942;6.946;2023-09-19T04:48:26;18.20;99.20
17597;DHT22;8917;50.942;6.946;2023-09-19T04:50:54;18.20;99.10
17597;DHT22;8917;50.942;6.946;2023-09-19T04:53:22;18.10;98.90
17597;DHT22;8917;50.942;6.946;2023-09-19T04:55:50;18.10;98.60
17597;DHT22;8917;50.942;6.946;2023-09-19T04:58:21;17.90;98.90
17597;DHT22;8917;50.942;6.946;2023-09-19T05:00:48;17.80;98.90
17597;DHT22;8917;50.942;6.946;2023-09-19T05:03:16;17.70;98.90
17597;DHT22;8917;50.942;6.946;2023-09-19T05:05:45;17.80;98.90
17597;DHT22;8917;50.942;6.946;2023-09-19T05:08:12;17.90;98.70
17597;DHT22;8917;50.942;6.946;2023-09-19T05:10:41;17.90;98.40
17597;DHT22;8917;50.942;6.946;2023-09-19T05:13:08;17.80;98.60
17597;DHT22;8917;50.942;6.946;2023-09-19T05:15:35;17.90;98.50
17597;DHT22;8917;50.942;6.946;2023-09-19T05:18:03;17.90;98.30
17597;DHT22;8917;50.942;6.946;2023-09-19T05:20:31;17.80;98.50
17597;DHT22;8917;50.942;6.946;2023-09-19T05:23:01;17.70;98.60
17597;DHT22;8917;50.942;6.946;2023-09-19T05:25:29;17.70;98.70
17597;DHT22;8917;50.942;6.946;2023-09-19T05:27:58;17.80;98.50
17597;DHT22;8917;50.942;6.946;2023-09-19T05:30:26;17.90;98.40
17597;DHT22;8917;50.942;6.946;2023-09-19T05:32:55;17.80;98.50
17597;DHT22;8917;50.942;6.946;2023-09-19T05:35:22;17.80;98.40
17597;DHT22;8917;50.942;6.946;2023-09-19T05:37:50;17.90;98.30
17597;DHT22;8917;50.942;6.946;2023-09-19T05:40:18;17.80;98.20
17597;DHT22;8917;50.942;6.946;2023-09-19T05:42:44;17.80;98.30
17597;DHT22;8917;50.942;6.946;2023-09-19T05:45:14;17.80;98.30
17597;DHT22;8917;50.942;6.946;2023-09-19T05:47:44;18.00;98.20
17597;DHT22;8917;50.942;6.946;2023-09-19T05:50:12;17.90;98.00
17597;DHT22;8917;50.942;6.946;2023-09-19T05:52:40;18.00;97.70
17597;DHT22;8917;50.942;6.946;2023-09-19T05:55:10;17.90;97.90
17597;DHT22;8917;50.942;6.946;2023-09-19T05:57:37;17.90;97.80
17597;DHT22;8917;50.942;6.946;2023-09-19T06:00:06;17.80;97.80
17597;DHT22;8917;50.942;6.946;2023-09-19T06:02:37;17.90;97.70
17597;DHT22;8917;50.942;6.946;2023-09-19T06:05:06;17.80;97.80
17597;DHT22;8917;50.942;6.946;2023-09-19T06:07:35;17.80;97.90
17597;DHT22;8917;50.942;6.946;2023-09-19T06:10:03;17.80;97.80
17597;DHT22;8917;50.942;6.946;2023-09-19T06:12:32;17.70;97.80
17597;DHT22;8917;50.942;6.946;2023-09-19T06:15:04;17.70;98.00
17597;DHT22;8917;50.942;6.946;2023-09-19T06:17:34;17.80;97.90
17597;DHT22;8917;50.942;6.946;2023-09-19T06:20:05;18.00;97.70
17597;DHT22;8917;50.942;6.946;2023-09-19T06:22:38;18.10;97.50
17597;DHT22;8917;50.942;6.946;2023-09-19T06:25:07;18.10;97.20
17597;DHT22;8917;50.942;6.946;2023-09-19T06:27:37;18.10;97.40
17597;DHT22;8917;50.942;6.946;2023-09-19T06:30:06;18.20;97.20
17597;DHT22;8917;50.942;6.946;2023-09-19T06:32:33;18.30;97.30
17597;DHT22;8917;50.942;6.946;2023-09-19T06:35:00;18.40;97.40
17597;DHT22;8917;50.942;6.946;2023-09-19T06:37:29;18.40;97.00
17597;DHT22;8917;50.942;6.946;2023-09-19T06:39:57;18.50;97.00
17597;DHT22;8917;50.942;6.946;2023-09-19T06:42:24;18.50;97.00
17597;DHT22;8917;50.942;6.946;2023-09-19T06:44:50;18.50;96.90
17597;DHT22;8917;50.942;6.946;2023-09-19T06:47:18;18.50;97.00
17597;DHT22;8917;50.942;6.946;2023-09-19T06:49:46;18.50;97.00
17597;DHT22;8917;50.942;6.946;2023-09-19T06:52:13;18.50;97.00
17597;DHT22;8917;50.942;6.946;2023-09-19T06:54:42;18.60;96.90
17597;DHT22;8917;50.942;6.946;2023-09-19T06:57:09;18.60;96.80
17597;DHT22;8917;50.942;6.946;2023-09-19T06:59:36;18.70;96.90
17597;DHT22;8917;50.942;6.946;2023-09-19T07:02:04;18.80;96.70
17597;DHT22;8917;50.942;6.946;2023-09-19T07:04:32;18.60;96.70
17597;DHT22;8917;50.942;6.946;2023-09-19T07:06:59;18.60;97.00
17597;DHT22;8917;50.942;6.946;2023-09-19T07:09:26;18.70;96.90
17597;DHT22;8917;50.942;6.946;2023-09-19T07:11:55;18.60;97.10
17597;DHT22;8917;50.942;6.946;2023-09-19T07:14:22;18.60;97.00
17597;DHT22;8917;50.942;6.946;2023-09-19T07:16:49;18.60;97.00
17597;DHT22;8917;50.942;6.946;2023-09-19T07:19:17;18.50;97.00
17597;DHT22;8917;50.942;6.946;2023-09-19T07:21:44;18.50;97.10
17597;DHT22;8917;50.942;6.946;2023-09-19T07:24:13;18.70;97.00
17597;DHT22;8917;50.942;6.946;2023-09-19T07:26:40;18.60;97.20
17597;DHT22;8917;50.942;6.946;2023-09-19T07:29:08;18.60;97.10
17597;DHT22;8917;50.942;6.946;2023-09-19T07:31:35;18.70;97.20
17597;DHT22;8917;50.942;6.946;2023-09-19T07:34:02;18.60;97.50
17597;DHT22;8917;50.942;6.946;2023-09-19T07:36:30;18.80;97.20
17597;DHT22;8917;50.942;6.946;2023-09-19T07:38:58;18.80;97.20
17597;DHT22;8917;50.942;6.946;2023-09-19T07:41:25;18.90;97.10
17597;DHT22;8917;50.942;6.946;2023-09-19T07:43:56;19.00;97.00
17597;DHT22;8917;50.942;6.946;2023-09-19T07:46:24;19.00;96.90
17597;DHT22;8917;50.942;6.946;2023-09-19T07:48:51;19.10;96.90
17597;DHT22;8917;50.942;6.946;2023-09-19T07:51:18;19.20;96.70
17597;DHT22;8917;50.942;6.946;2023-09-19T07:53:45;19.30;96.50
17597;DHT22;8917;50.942;6.946;2023-09-19T07:56:13;19.30;96.40
17597;DHT22;8917;50.942;6.946;2023-09-19T07:58:41;19.50;96.40
17597;DHT22;8917;50.942;6.946;2023-09-19T08:01:10;19.50;96.10
17597;DHT22;8917;50.942;6.946;2023-09-19T08:03:40;19.60;96.10
17597;DHT22;8917;50.942;6.946;2023-09-19T08:06:09;19.70;96.00
17597;DHT22;8917;50.942;6.946;2023-09-19T08:08:36;19.60;95.90
17597;DHT22;8917;50.942;6.946;2023-09-19T08:11:04;19.50;96.10
17597;DHT22;8917;50.942;6.946;2023-09-19T08:13:37;19.60;96.10
17597;DHT22;8917;50.942;6.946;2023-09-19T08:16:06;19.70;95.80
17597;DHT22;8917;50.942;6.946;2023-09-19T08:18:33;20.10;95.60
17597;DHT22;8917;50.942;6.946;2023-09-19T08:21:02;20.20;95.30
17597;DHT22;8917;50.942;6.946;2023-09-19T08:23:28;20.00;95.10
17597;DHT22;8917;50.942;6.946;2023-09-19T08:25:58;20.00;95.30
17597;DHT22;8917;50.942;6.946;2023-09-19T08:28:28;19.90;95.40
17597;DHT22;8917;50.942;6.946;2023-09-19T08:30:55;20.00;95.50
17597;DHT22;8917;50.942;6.946;2023-09-19T08:33:23;20.00;95.10
17597;DHT22;8917;50.942;6.946;2023-09-19T08:35:50;20.10;94.80
17597;DHT22;8917;50.942;6.946;2023-09-19T08:38:19;20.30;95.00
17597;DHT22;8917;50.942;6.946;2023-09-19T08:40:46;20.30;95.00
17597;DHT22;8917;50.942;6.946;2023-09-19T08:43:13;20.30;95.20
17597;DHT22;8917;50.942;6.946;2023-09-19T08:45:39;20.30;94.80
17597;DHT22;8917;50.942;6.946;2023-09-19T08:48:18;20.40;94.90
17597;DHT22;8917;50.942;6.946;2023-09-19T08:50:51;20.30;95.00
17597;DHT22;8917;50.942;6.946;2023-09-19T08:53:27;20.40;94.60
17597;DHT22;8917;50.942;6.946;2023-09-19T08:55:59;20.30;94.60
17597;DHT22;8917;50.942;6.946;2023-09-19T08:58:33;20.30;94.60
17597;DHT22;8917;50.942;6.946;2023-09-19T09:01:01;20.20;94.30
17597;DHT22;8917;50.942;6.946;2023-09-19T09:03:33;20.00;93.90
17597;DHT22;8917;50.942;6.946;2023-09-19T09:06:01;20.10;93.80
17597;DHT22;8917;50.942;6.946;2023-09-19T09:08:31;20.30;93.90
17597;DHT22;8917;50.942;6.946;2023-09-19T09:10:59;20.30;94.20
17597;DHT22;8917;50.942;6.946;2023-09-19T09:13:26;20.30;93.70
17597;DHT22;8917;50.942;6.946;2023-09-19T09:15:53;20.30;93.30
17597;DHT22;8917;50.942;6.946;2023-09-19T09:18:20;20.30;93.00
17597;DHT22;8917;50.942;6.946;2023-09-19T09:20:48;20.30;92.70
17597;DHT22;8917;50.942;6.946;2023-09-19T09:23:14;20.40;92.90
17597;DHT22;8917;50.942;6.946;2023-09-19T09:25:50;20.60;92.90
17597;DHT22;8917;50.942;6.946;2023-09-19T09:28:22;20.80;92.60
17597;DHT22;8917;50.942;6.946;2023-09-19T09:30:49;20.70;92.40
17597;DHT22;8917;50.942;6.946;2023-09-19T09:33:17;20.60;92.20
17597;DHT22;8917;50.942;6.946;2023-09-19T09:35:51;20.60;92.20
17597;DHT22;8917;50.942;6.946;2023-09-19T09:38:24;20.50;92.10
17597;DHT22;8917;50.942;6.946;2023-09-19T09:41:00;20.50;92.10
17597;DHT22;8917;50.942;6.946;2023-09-19T09:43:33;20.70;91.60
17597;DHT22;8917;50.942;6.946;2023-09-19T09:46:11;20.80;91.50
17597;DHT22;8917;50.942;6.946;2023-09-19T09:48:57;20.50;91.40
17597;DHT22;8917;50.942;6.946;2023-09-19T09:51:46;20.50;91.70
17597;DHT22;8917;50.942;6.946;2023-09-19T09:54:23;20.70;91.90
17597;DHT22;8917;50.942;6.946;2023-09-19T09:56:56;20.80;91.80
17597;DHT22;8917;50.942;6.946;2023-09-19T09:59:47;20.80;91.40
17597;DHT22;8917;50.942;6.946;2023-09-19T10:02:16;20.50;91.80
17597;DHT22;8917;50.942;6.946;2023-09-19T10:04:50;20.70;92.20
17597;DHT22;8917;50.942;6.946;2023-09-19T10:07:29;20.90;91.40
17597;DHT22;8917;50.942;6.946;2023-09-19T10:10:02;20.80;91.60
17597;DHT22;8917;50.942;6.946;2023-09-19T10:12:39;21.00;91.20
17597;DHT22;8917;50.942;6.946;2023-09-19T10:15:09;21.10;91.00
17597;DHT22;8917;50.942;6.946;2023-09-19T10:17:38;21.20;90.80
17597;DHT22;8917;50.942;6.946;2023-09-19T10:20:10;21.40;91.00
17597;DHT22;8917;50.942;6.946;2023-09-19T10:22:48;21.40;91.30
17597;DHT22;8917;50.942;6.946;2023-09-19T10:25:25;21.40;91.00
17597;DHT22;8917;50.942;6.946;2023-09-19T10:27:57;21.20;91.10
17597;DHT22;8917;50.942;6.946;2023-09-19T10:30:29;21.40;91.30
17597;DHT22;8917;50.942;6.946;2023-09-19T10:33:00;21.30;91.50
17597;DHT22;8917;50.942;6.946;2023-09-19T10:35:28;21.40;91.20
17597;DHT22;8917;50.942;6.946;2023-09-19T10:37:57;21.30;91.30
17597;DHT22;8917;50.942;6.946;2023-09-19T10:40:27;21.30;91.40
17597;DHT22;8917;50.942;6.946;2023-09-19T10:43:01;21.20;90.90
17597;DHT22;8917;50.942;6.946;2023-09-19T10:45:31;21.20;90.90
17597;DHT22;8917;50.942;6.946;2023-09-19T10:47:58;21.30;90.90
17597;DHT22;8917;50.942;6.946;2023-09-19T10:50:28;21.10;90.90
17597;DHT22;8917;50.942;6.946;2023-09-19T10:53:00;21.20;91.00
17597;DHT22;8917;50.942;6.946;2023-09-19T10:55:31;21.30;91.20
17597;DHT22;8917;50.942;6.946;2023-09-19T10:58:01;21.30;91.00
17597;DHT22;8917;50.942;6.946;2023-09-19T11:00:51;21.20;91.20
17597;DHT22;8917;50.942;6.946;2023-09-19T11:03:20;21.40;91.20
17597;DHT22;8917;50.942;6.946;2023-09-19T11:06:09;21.40;90.90
17597;DHT22;8917;50.942;6.946;2023-09-19T11:08:51;21.20;90.90
17597;DHT22;8917;50.942;6.946;2023-09-19T11:11:43;21.30;91.10
17597;DHT22;8917;50.942;6.946;2023-09-19T11:14:29;21.40;90.50
17597;DHT22;8917;50.942;6.946;2023-09-19T11:17:30;21.50;90.20
17597;DHT22;8917;50.942;6.946;2023-09-19T11:20:19;21.70;90.40
17597;DHT22;8917;50.942;6.946;2023-09-19T11:23:18;21.50;90.00
17597;DHT22;8917;50.942;6.946;2023-09-19T11:25:51;21.50;90.00
17597;DHT22;8917;50.942;6.946;2023-09-19T11:28:33;21.60;90.00
17597;DHT22;8917;50.942;6.946;2023-09-19T11:37:00;21.80;88.40
17597;DHT22;8917;50.942;6.946;2023-09-19T11:39:30;21.70;88.60
17597;DHT22;8917;50.942;6.946;2023-09-19T11:41:58;21.70;87.20
17597;DHT22;8917;50.942;6.946;2023-09-19T11:44:33;21.90;86.90
17597;DHT22;8917;50.942;6.946;2023-09-19T11:47:00;21.80;87.00
17597;DHT22;8917;50.942;6.946;2023-09-19T11:49:30;21.80;86.70
17597;DHT22;8917;50.942;6.946;2023-09-19T11:52:00;21.80;87.10
17597;DHT22;8917;50.942;6.946;2023-09-19T11:54:31;21.80;87.40
17597;DHT22;8917;50.942;6.946;2023-09-19T11:56:59;21.70;86.50
17597;DHT22;8917;50.942;6.946;2023-09-19T11:59:28;21.90;86.60
17597;DHT22;8917;50.942;6.946;2023-09-19T12:01:56;21.80;85.70
17597;DHT22;8917;50.942;6.946;2023-09-19T12:04:34;21.90;85.80
17597;DHT22;8917;50.942;6.946;2023-09-19T12:07:06;21.90;85.90
17597;DHT22;8917;50.942;6.946;2023-09-19T12:09:39;22.00;85.30
17597;DHT22;8917;50.942;6.946;2023-09-19T12:12:06;22.20;84.20
17597;DHT22;8917;50.942;6.946;2023-09-19T12:14:34;22.30;84.50
17597;DHT22;8917;50.942;6.946;2023-09-19T12:17:01;22.60;84.10
17597;DHT22;8917;50.942;6.946;2023-09-19T12:19:29;22.50;82.60
17597;DHT22;8917;50.942;6.946;2023-09-19T12:21:57;22.60;81.50
17597;DHT22;8917;50.942;6.946;2023-09-19T12:24:27;22.50;82.40
17597;DHT22;8917;50.942;6.946;2023-09-19T12:27:00;22.50;82.70
17597;DHT22;8917;50.942;6.946;2023-09-19T12:29:30;22.70;82.20
17597;DHT22;8917;50.942;6.946;2023-09-19T12:31:58;22.60;81.50
17597;DHT22;8917;50.942;6.946;2023-09-19T12:34:30;22.70;81.50
17597;DHT22;8917;50.942;6.946;2023-09-19T12:37:07;22.70;81.50
17597;DHT22;8917;50.942;6.946;2023-09-19T12:39:42;22.80;81.40
17597;DHT22;8917;50.942;6.946;2023-09-19T12:42:10;23.00;80.30
17597;DHT22;8917;50.942;6.946;2023-09-19T12:44:41;23.10;80.10
17597;DHT22;8917;50.942;6.946;2023-09-19T12:47:13;23.20;79.80
17597;DHT22;8917;50.942;6.946;2023-09-19T12:50:06;23.40;79.50
17597;DHT22;8917;50.942;6.946;2023-09-19T12:52:39;23.50;79.50
17597;DHT22;8917;50.942;6.946;2023-09-19T12:55:19;23.40;81.30
17597;DHT22;8917;50.942;6.946;2023-09-19T12:57:56;23.70;80.00
17597;DHT22;8917;50.942;6.946;2023-09-19T13:00:32;24.20;78.80
17597;DHT22;8917;50.942;6.946;2023-09-19T13:03:14;24.40;77.90
17597;DHT22;8917;50.942;6.946;2023-09-19T13:05:51;24.80;76.40
17597;DHT22;8917;50.942;6.946;2023-09-19T13:08:23;25.80;75.50
17597;DHT22;8917;50.942;6.946;2023-09-19T13:11:10;27.10;73.20
17597;DHT22;8917;50.942;6.946;2023-09-19T13:13:40;29.10;70.30
17597;DHT22;8917;50.942;6.946;2023-09-19T13:16:09;29.70;65.60
17597;DHT22;8917;50.942;6.946;2023-09-19T13:18:44;28.40;68.10
17597;DHT22;8917;50.942;6.946;2023-09-19T13:21:12;26.90;69.50
17597;DHT22;8917;50.942;6.946;2023-09-19T13:23:49;27.40;69.50
17597;DHT22;8917;50.942;6.946;2023-09-19T13:26:18;27.30;70.00
17597;DHT22;8917;50.942;6.946;2023-09-19T13:28:45;28.70;68.50
17597;DHT22;8917;50.942;6.946;2023-09-19T13:31:13;28.80;67.90
17597;DHT22;8917;50.942;6.946;2023-09-19T13:33:44;28.20;68.10
17597;DHT22;8917;50.942;6.946;2023-09-19T13:36:12;29.00;67.30
17597;DHT22;8917;50.942;6.946;2023-09-19T13:38:40;29.80;66.80
17597;DHT22;8917;50.942;6.946;2023-09-19T13:41:08;29.90;64.70
17597;DHT22;8917;50.942;6.946;2023-09-19T13:43:37;29.70;65.60
17597;DHT22;8917;50.942;6.946;2023-09-19T13:46:04;28.60;67.50
17597;DHT22;8917;50.942;6.946;2023-09-19T13:48:33;28.60;68.20
17597;DHT22;8917;50.942;6.946;2023-09-19T13:51:02;29.90;67.80
17597;DHT22;8917;50.942;6.946;2023-09-19T13:53:29;31.60;64.00
17597;DHT22;8917;50.942;6.946;2023-09-19T13:55:56;31.10;63.60
17597;DHT22;8917;50.942;6.946;2023-09-19T13:58:23;30.80;64.20
17597;DHT22;8917;50.942;6.946;2023-09-19T14:00:51;32.00;61.60
17597;DHT22;8917;50.942;6.946;2023-09-19T14:03:20;31.90;62.30
17597;DHT22;8917;50.942;6.946;2023-09-19T14:05:48;31.30;62.40
17597;DHT22;8917;50.942;6.946;2023-09-19T14:08:17;31.40;61.20
17597;DHT22;8917;50.942;6.946;2023-09-19T14:10:44;29.80;63.90
17597;DHT22;8917;50.942;6.946;2023-09-19T14:13:10;28.40;65.70
17597;DHT22;8917;50.942;6.946;2023-09-19T14:15:38;26.80;68.70
17597;DHT22;8917;50.942;6.946;2023-09-19T14:18:07;26.50;70.20
17597;DHT22;8917;50.942;6.946;2023-09-19T14:20:38;26.10;71.50
17597;DHT22;8917;50.942;6.946;2023-09-19T14:23:05;26.10;71.70
17597;DHT22;8917;50.942;6.946;2023-09-19T14:25:34;26.30;72.40
17597;DHT22;8917;50.942;6.946;2023-09-19T14:28:01;26.00;72.50
17597;DHT22;8917;50.942;6.946;2023-09-19T14:30:28;26.00;73.20
17597;DHT22;8917;50.942;6.946;2023-09-19T14:32:55;25.50;73.40
17597;DHT22;8917;50.942;6.946;2023-09-19T14:35:24;25.20;74.70
17597;DHT22;8917;50.942;6.946;2023-09-19T14:37:51;25.10;75.50
17597;DHT22;8917;50.942;6.946;2023-09-19T14:40:18;25.00;75.90
17597;DHT22;8917;50.942;6.946;2023-09-19T14:42:46;24.80;76.00
17597;DHT22;8917;50.942;6.946;2023-09-19T14:45:13;24.70;76.70
17597;DHT22;8917;50.942;6.946;2023-09-19T14:47:43;24.60;77.10
17597;DHT22;8917;50.942;6.946;2023-09-19T14:50:10;24.80;77.30
17597;DHT22;8917;50.942;6.946;2023-09-19T14:52:39;24.60;77.30
17597;DHT22;8917;50.942;6.946;2023-09-19T14:55:07;24.60;77.40
17597;DHT22;8917;50.942;6.946;2023-09-19T14:57:35;24.40;77.90
17597;DHT22;8917;50.942;6.946;2023-09-19T15:00:06;24.20;77.70
17597;DHT22;8917;50.942;6.946;2023-09-19T15:02:37;24.30;77.80
17597;DHT22;8917;50.942;6.946;2023-09-19T15:05:05;24.50;77.30
17597;DHT22;8917;50.942;6.946;2023-09-19T15:07:33;24.30;78.00
17597;DHT22;8917;50.942;6.946;2023-09-19T15:10:04;24.30;78.10
17597;DHT22;8917;50.942;6.946;2023-09-19T15:12:35;23.90;78.10
17597;DHT22;8917;50.942;6.946;2023-09-19T15:15:03;23.50;80.40
17597;DHT22;8917;50.942;6.946;2023-09-19T15:17:30;23.50;80.20
17597;DHT22;8917;50.942;6.946;2023-09-19T15:19:57;23.60;80.30
17597;DHT22;8917;50.942;6.946;2023-09-19T15:22:24;23.60;80.70
17597;DHT22;8917;50.942;6.946;2023-09-19T15:24:52;23.50;80.10
17597;DHT22;8917;50.942;6.946;2023-09-19T15:27:20;23.10;81.10
17597;DHT22;8917;50.942;6.946;2023-09-19T15:29:47;23.30;81.30
17597;DHT22;8917;50.942;6.946;2023-09-19T15:32:14;23.30;80.80
17597;DHT22;8917;50.942;6.946;2023-09-19T15:34:41;23.10;81.60
17597;DHT22;8917;50.942;6.946;2023-09-19T15:37:08;23.00;81.50
17597;DHT22;8917;50.942;6.946;2023-09-19T15:39:34;23.10;81.40
17597;DHT22;8917;50.942;6.946;2023-09-19T15:42:03;23.10;81.40
17597;DHT22;8917;50.942;6.946;2023-09-19T15:44:31;23.20;81.30
17597;DHT22;8917;50.942;6.946;2023-09-19T15:46:58;22.90;81.80
17597;DHT22;8917;50.942;6.946;2023-09-19T15:49:25;22.70;82.20
17597;DHT22;8917;50.942;6.946;2023-09-19T15:51:52;22.70;82.50
17597;DHT22;8917;50.942;6.946;2023-09-19T15:54:19;22.70;82.60
17597;DHT22;8917;50.942;6.946;2023-09-19T15:56:46;22.70;82.70
17597;DHT22;8917;50.942;6.946;2023-09-19T15:59:14;22.80;82.50
17597;DHT22;8917;50.942;6.946;2023-09-19T16:01:44;22.70;83.00
17597;DHT22;8917;50.942;6.946;2023-09-19T16:04:11;22.60;82.90
17597;DHT22;8917;50.942;6.946;2023-09-19T16:06:39;22.50;83.90
17597;DHT22;8917;50.942;6.946;2023-09-19T16:09:06;22.70;83.30